createdAt,value
2018-10-18T00:01:53.263Z,83.20
2018-10-18T00:04:21.859Z,83.90
2018-10-18T00:06:50.500Z,80.90
2018-10-18T00:09:19.108Z,84.37
2018-10-18T00:11:47.726Z,81.60
2018-10-18T00:14:16.431Z,79.40
2018-10-18T00:16:47.268Z,79.37
2018-10-18T00:19:18.861Z,82.77
2018-10-18T00:21:47.584Z,86.50
2018-10-18T00:24:16.346Z,83.37
2018-10-18T00:26:46.455Z,85.70
2018-10-18T00:29:20.333Z,87.27
2018-10-18T00:31:51.839Z,88.90
2018-10-18T00:34:20.655Z,85.70
2018-10-18T00:36:53.300Z,91.47
2018-10-18T00:39:21.915Z,91.27
2018-10-18T00:41:50.542Z,89.77
2018-10-18T00:44:19.198Z,92.80
2018-10-18T00:46:47.768Z,92.30
2018-10-18T00:49:16.406Z,85.00
2018-10-18T00:51:45.020Z,86.80
2018-10-18T00:54:13.670Z,89.33
2018-10-18T00:56:42.214Z,89.13
2018-10-18T00:59:10.958Z,86.90
2018-10-18T01:01:39.564Z,86.27
2018-10-18T01:04:08.195Z,86.67
2018-10-18T01:06:36.905Z,86.63
2018-10-18T01:09:07.661Z,82.67
2018-10-18T01:11:36.255Z,80.30
2018-10-18T01:14:05.269Z,79.97
2018-10-18T01:16:33.831Z,79.80
2018-10-18T01:19:03.333Z,79.80
2018-10-18T01:21:32.019Z,80.77
2018-10-18T01:24:00.685Z,76.80
2018-10-18T01:26:29.236Z,74.97
2018-10-18T01:28:57.843Z,74.60
2018-10-18T01:31:26.866Z,70.50
2018-10-18T01:33:55.467Z,72.33
2018-10-18T01:36:24.324Z,72.40
2018-10-18T01:38:52.944Z,73.03
2018-10-18T01:41:21.547Z,77.57
2018-10-18T01:43:50.176Z,80.83
2018-10-18T01:46:18.868Z,74.60
2018-10-18T01:48:47.473Z,75.00
2018-10-18T01:51:16.079Z,76.40
2018-10-18T01:53:44.683Z,73.20
2018-10-18T01:56:13.394Z,74.03
2018-10-18T01:58:41.895Z,74.47
2018-10-18T02:01:10.604Z,79.20
2018-10-18T02:03:39.203Z,72.50
2018-10-18T02:06:08.001Z,70.90
2018-10-18T02:08:36.531Z,71.73
2018-10-18T02:11:05.432Z,71.10
2018-10-18T02:13:34.107Z,72.73
2018-10-18T02:16:02.651Z,65.93
2018-10-18T02:18:31.253Z,72.43
2018-10-18T02:20:59.872Z,68.77
2018-10-18T02:23:28.484Z,66.20
2018-10-18T02:25:57.083Z,66.17
2018-10-18T02:28:25.670Z,63.57
2018-10-18T02:30:54.280Z,64.57
2018-10-18T02:33:22.875Z,62.33
2018-10-18T02:35:51.509Z,64.47
2018-10-18T02:38:20.171Z,61.57
2018-10-18T02:40:48.771Z,60.70
2018-10-18T02:43:17.409Z,58.90
2018-10-18T02:45:46.032Z,60.17
2018-10-18T02:48:14.714Z,62.40
2018-10-18T02:50:43.244Z,58.07
2018-10-18T02:53:11.852Z,55.90
2018-10-18T02:55:40.448Z,54.40
2018-10-18T02:58:09.048Z,55.80
2018-10-18T03:00:37.639Z,53.70
2018-10-18T03:03:06.300Z,54.50
2018-10-18T03:05:34.891Z,53.27
2018-10-18T03:08:03.483Z,55.90
2018-10-18T03:10:32.084Z,52.07
2018-10-18T03:13:00.700Z,53.97
2018-10-18T03:15:29.307Z,53.80
2018-10-18T03:17:57.972Z,53.53
2018-10-18T03:20:26.509Z,51.90
2018-10-18T03:22:55.120Z,52.60
2018-10-18T03:25:23.706Z,52.30
2018-10-18T03:27:52.308Z,51.37
2018-10-18T03:30:21.007Z,51.67
2018-10-18T03:32:49.616Z,50.13
2018-10-18T03:35:18.207Z,51.03
2018-10-18T03:37:46.811Z,49.47
2018-10-18T03:40:16.252Z,48.53
2018-10-18T03:42:44.867Z,48.40
2018-10-18T03:45:13.467Z,47.50
2018-10-18T03:47:42.063Z,51.13
2018-10-18T03:50:10.673Z,46.50
2018-10-18T03:52:39.287Z,48.03
2018-10-18T03:55:07.894Z,47.60
2018-10-18T03:57:36.499Z,48.67
2018-10-18T04:00:05.948Z,48.30
2018-10-18T04:02:34.538Z,49.50
2018-10-18T04:05:03.148Z,45.50
2018-10-18T04:07:31.820Z,47.57
2018-10-18T04:10:00.534Z,47.80
2018-10-18T04:12:29.269Z,47.90
2018-10-18T04:14:57.804Z,48.17
2018-10-18T04:17:26.412Z,50.80
2018-10-18T04:19:55.015Z,46.47
2018-10-18T04:22:23.626Z,46.70
2018-10-18T04:24:52.229Z,50.57
2018-10-18T04:27:20.859Z,47.67
2018-10-18T04:29:49.471Z,48.10
2018-10-18T04:32:18.087Z,46.40
2018-10-18T04:34:46.720Z,47.67
2018-10-18T04:37:15.364Z,47.80
2018-10-18T04:39:43.933Z,45.97
2018-10-18T04:42:12.667Z,45.03
2018-10-18T04:44:41.151Z,45.70
2018-10-18T04:47:10.166Z,46.43
2018-10-18T04:49:38.745Z,45.93
2018-10-18T04:52:07.411Z,44.17
2018-10-18T04:54:36.002Z,47.60
2018-10-18T04:57:04.700Z,46.90
2018-10-18T04:59:33.318Z,46.93
2018-10-18T05:02:01.928Z,44.97
2018-10-18T05:04:30.536Z,47.97
2018-10-18T05:06:59.177Z,47.50
2018-10-18T05:09:27.760Z,49.03
2018-10-18T05:11:56.377Z,47.87
2018-10-18T05:14:24.978Z,47.87
2018-10-18T05:16:53.589Z,47.70
2018-10-18T05:19:22.195Z,44.33
2018-10-18T05:21:50.820Z,49.60
2018-10-18T05:24:19.416Z,46.20
2018-10-18T05:26:48.043Z,47.03
2018-10-18T05:29:16.656Z,47.13
2018-10-18T05:31:45.323Z,48.23
2018-10-18T05:34:13.913Z,46.27
2018-10-18T05:36:42.540Z,45.87
2018-10-18T05:39:12.566Z,49.30
2018-10-18T05:41:41.207Z,47.40
2018-10-18T05:44:09.880Z,48.17
2018-10-18T05:46:38.537Z,43.03
2018-10-18T05:49:07.115Z,43.37
2018-10-18T05:51:35.705Z,44.27
2018-10-18T05:54:04.373Z,42.57
2018-10-18T05:56:32.903Z,44.50
2018-10-18T05:59:01.613Z,43.30
2018-10-18T06:01:30.384Z,42.87
2018-10-18T06:03:58.995Z,42.33
2018-10-18T06:06:27.599Z,42.87
2018-10-18T06:08:56.199Z,40.60
2018-10-18T06:11:26.898Z,39.40
2018-10-18T06:13:55.603Z,39.53
2018-10-18T06:16:25.323Z,41.23
2018-10-18T06:18:54.046Z,41.43
2018-10-18T06:21:23.251Z,38.40
2018-10-18T06:23:51.995Z,39.07
2018-10-18T06:26:20.844Z,39.90
2018-10-18T06:28:50.274Z,39.00
2018-10-18T06:31:21.417Z,37.20
2018-10-18T06:33:50.228Z,37.50
2018-10-18T06:36:18.832Z,41.80
2018-10-18T06:38:48.154Z,39.27
2018-10-18T06:41:17.026Z,41.57
2018-10-18T06:43:45.580Z,40.90
2018-10-18T06:46:14.839Z,41.07
2018-10-18T06:48:43.809Z,39.07
2018-10-18T06:51:12.967Z,39.10
2018-10-18T06:55:06.149Z,39.83
2018-10-18T06:57:35.962Z,38.57
2018-10-18T07:00:07.555Z,41.00
2018-10-18T07:02:38.012Z,39.47
2018-10-18T07:05:10.231Z,40.97
2018-10-18T07:07:38.821Z,41.10
2018-10-18T07:10:07.682Z,39.97
2018-10-18T07:12:37.038Z,40.20
2018-10-18T07:15:06.551Z,39.50
2018-10-18T07:17:35.503Z,39.13
2018-10-18T07:20:04.625Z,38.60
2018-10-18T07:22:33.222Z,35.70
2018-10-18T07:25:01.839Z,34.90
2018-10-18T07:27:30.431Z,35.00
2018-10-18T07:29:59.051Z,34.13
2018-10-18T07:32:27.723Z,33.77
2018-10-18T07:34:56.771Z,32.90
2018-10-18T07:37:25.302Z,32.40
2018-10-18T07:39:53.911Z,31.00
2018-10-18T07:42:22.516Z,30.70
2018-10-18T07:44:51.114Z,30.00
2018-10-18T07:47:19.727Z,29.03
2018-10-18T07:49:48.326Z,30.10
2018-10-18T07:52:16.937Z,26.93
2018-10-18T07:54:45.531Z,29.00
2018-10-18T07:57:14.203Z,28.00
2018-10-18T07:59:42.807Z,27.20
2018-10-18T08:02:11.415Z,26.17
2018-10-18T08:04:40.007Z,28.97
2018-10-18T08:07:08.647Z,26.97
2018-10-18T08:09:37.220Z,24.77
2018-10-18T08:12:05.879Z,25.03
2018-10-18T08:14:34.500Z,24.57
2018-10-18T08:17:03.255Z,22.87
2018-10-18T08:19:31.703Z,22.33
2018-10-18T08:22:00.311Z,23.03
2018-10-18T08:24:28.919Z,23.97
2018-10-18T08:26:57.563Z,22.40
2018-10-18T08:29:26.475Z,20.77
2018-10-18T08:31:55.223Z,21.37
2018-10-18T08:34:23.691Z,22.47
2018-10-18T08:36:52.300Z,21.50
2018-10-18T08:39:20.912Z,20.47
2018-10-18T08:41:49.524Z,19.97
2018-10-18T08:44:18.167Z,21.03
2018-10-18T08:46:46.744Z,20.20
2018-10-18T08:49:15.467Z,19.20
2018-10-18T08:51:43.984Z,18.20
2018-10-18T08:54:12.740Z,18.53
2018-10-18T08:56:41.339Z,17.23
2018-10-18T08:59:10.005Z,15.40
2018-10-18T09:01:38.555Z,15.50
2018-10-18T09:04:07.175Z,17.10
2018-10-18T09:06:35.789Z,15.57
2018-10-18T09:09:06.457Z,16.10
2018-10-18T09:11:35.121Z,17.47
2018-10-18T09:14:03.743Z,15.07
2018-10-18T09:16:32.431Z,15.90
2018-10-18T09:19:01.101Z,14.80
2018-10-18T09:21:29.646Z,13.80
2018-10-18T09:23:58.348Z,16.40
2018-10-18T09:26:26.866Z,13.87
2018-10-18T09:28:55.476Z,14.63
2018-10-18T09:31:24.144Z,13.37
2018-10-18T09:33:52.747Z,15.00
2018-10-18T09:36:21.376Z,14.00
2018-10-18T09:38:49.975Z,13.13
2018-10-18T09:41:18.591Z,13.27
2018-10-18T09:43:47.534Z,12.30
2018-10-18T09:46:15.809Z,13.97
2018-10-18T09:48:44.403Z,12.90
2018-10-18T09:51:19.716Z,13.20
2018-10-18T09:53:48.329Z,12.47
2018-10-18T09:56:17.027Z,12.87
2018-10-18T09:58:45.562Z,12.33
2018-10-18T10:01:19.620Z,10.53
2018-10-18T10:03:48.222Z,10.50
2018-10-18T10:06:16.837Z,9.57
2018-10-18T10:08:45.431Z,10.40
2018-10-18T10:11:14.127Z,9.50
2018-10-18T10:13:42.840Z,10.10
2018-10-18T10:16:11.339Z,9.10
2018-10-18T10:18:39.944Z,9.30
2018-10-18T10:21:08.556Z,9.50
2018-10-18T10:23:37.163Z,10.20
2018-10-18T10:26:05.799Z,9.63
2018-10-18T10:28:34.408Z,8.70
2018-10-18T10:31:03.043Z,8.43
2018-10-18T10:33:31.666Z,9.07
2018-10-18T10:36:00.212Z,8.80
2018-10-18T10:38:28.820Z,8.30
2018-10-18T10:40:57.468Z,8.07
2018-10-18T10:44:55.316Z,7.80
2018-10-18T10:47:23.882Z,6.50
2018-10-18T10:49:52.489Z,6.13
2018-10-18T10:52:21.114Z,5.90
2018-10-18T10:54:49.678Z,5.20
2018-10-18T10:57:18.374Z,6.27
2018-10-18T10:59:46.884Z,5.53
2018-10-18T11:02:15.652Z,7.33
2018-10-18T11:04:44.164Z,7.03
2018-10-18T11:07:12.766Z,8.10
2018-10-18T11:09:41.387Z,7.13
2018-10-18T11:12:10.044Z,7.90
2018-10-18T11:14:38.559Z,6.20
2018-10-18T11:17:07.186Z,5.80
2018-10-18T11:19:35.859Z,4.90
2018-10-18T11:22:05.503Z,4.90
2018-10-18T11:24:34.161Z,5.30
2018-10-18T11:27:02.783Z,5.47
2018-10-18T11:29:31.311Z,5.20
2018-10-18T11:31:59.976Z,5.00
2018-10-18T11:34:28.606Z,4.77
2018-10-18T11:36:57.132Z,3.73
2018-10-18T11:39:25.724Z,3.43
2018-10-18T11:41:54.347Z,3.60
2018-10-18T11:44:28.409Z,3.80
2018-10-18T11:46:56.996Z,4.40
2018-10-18T11:49:25.604Z,4.20
2018-10-18T11:51:54.226Z,4.67
2018-10-18T11:54:22.760Z,5.03
2018-10-18T11:56:51.335Z,4.77
2018-10-18T11:59:19.928Z,4.83
2018-10-18T12:01:48.494Z,4.73
2018-10-18T12:04:17.122Z,4.60
2018-10-18T12:06:45.711Z,4.80
2018-10-18T12:09:14.295Z,5.37
2018-10-18T12:11:42.876Z,4.60
2018-10-18T12:14:11.512Z,5.70
2018-10-18T12:16:40.072Z,5.90
2018-10-18T12:19:08.759Z,10.10
2018-10-18T12:21:37.288Z,10.00
2018-10-18T12:24:06.229Z,10.40
2018-10-18T12:26:34.830Z,12.63
2018-10-18T12:29:03.483Z,11.40
2018-10-18T12:31:32.040Z,12.87
2018-10-18T12:34:00.635Z,14.33
2018-10-18T12:36:29.271Z,15.00
2018-10-18T12:38:57.861Z,13.70
2018-10-18T12:41:26.638Z,15.13
2018-10-18T12:43:55.106Z,13.60
2018-10-18T12:46:23.681Z,11.60
2018-10-18T12:48:52.296Z,11.90
2018-10-18T12:51:20.905Z,11.10
2018-10-18T12:53:49.499Z,9.93
2018-10-18T12:56:18.132Z,10.10
2018-10-18T12:58:46.703Z,8.30
2018-10-18T13:01:15.295Z,6.10
2018-10-18T13:03:43.887Z,5.53
2018-10-18T13:06:12.557Z,4.60
2018-10-18T13:08:41.064Z,4.10
2018-10-18T13:11:09.660Z,3.07
2018-10-18T13:13:38.242Z,2.57
2018-10-18T13:16:06.832Z,2.70
2018-10-18T13:18:35.424Z,1.83
2018-10-18T13:21:04.100Z,2.10
2018-10-18T13:23:32.688Z,2.00
2018-10-18T13:26:01.322Z,2.23
2018-10-18T13:28:29.859Z,2.97
2018-10-18T13:30:58.427Z,3.50
2018-10-18T13:33:27.003Z,3.93
2018-10-18T13:35:55.624Z,3.83
2018-10-18T13:38:24.199Z,3.70
2018-10-18T13:40:52.843Z,3.23
2018-10-18T13:43:21.346Z,3.40
2018-10-18T13:45:49.935Z,5.07
2018-10-18T13:48:18.528Z,5.43
2018-10-18T13:50:47.104Z,6.17
2018-10-18T13:53:15.692Z,4.60
2018-10-18T13:55:44.260Z,4.50
2018-10-18T13:58:12.855Z,5.33
2018-10-18T14:00:41.432Z,5.60
2018-10-18T14:03:10.020Z,5.67
2018-10-18T14:05:38.680Z,5.30
2018-10-18T14:08:07.351Z,5.20
2018-10-18T14:10:35.783Z,4.70
2018-10-18T14:13:04.548Z,5.70
2018-10-18T14:15:33.139Z,5.67
2018-10-18T14:18:01.716Z,5.90
2018-10-18T14:20:30.324Z,6.93
2018-10-18T14:22:58.972Z,6.43
2018-10-18T14:25:27.508Z,6.20
2018-10-18T14:27:56.079Z,7.23
2018-10-18T14:30:24.804Z,6.20
2018-10-18T14:32:53.232Z,6.20
2018-10-18T14:35:21.815Z,6.00
2018-10-18T14:37:50.395Z,5.80
2018-10-18T14:40:19.021Z,4.07
2018-10-18T14:42:47.559Z,4.47
2018-10-18T14:45:16.159Z,3.70
2018-10-18T14:47:44.812Z,3.47
2018-10-18T14:50:14.206Z,3.37
2018-10-18T14:52:43.255Z,3.20
2018-10-18T14:55:11.839Z,3.23
2018-10-18T14:57:40.801Z,3.20
2018-10-18T15:00:10.694Z,3.43
2018-10-18T15:02:39.288Z,3.20
2018-10-18T15:05:09.242Z,3.17
2018-10-18T15:07:38.330Z,3.73
2018-10-18T15:10:08.367Z,2.80
2018-10-18T15:12:37.082Z,3.50
2018-10-18T15:15:06.756Z,3.40
2018-10-18T15:17:35.340Z,3.50
2018-10-18T15:20:05.037Z,4.90
2018-10-18T15:22:33.568Z,6.03
2018-10-18T15:25:02.256Z,4.80
2018-10-18T15:27:30.959Z,5.57
2018-10-18T15:29:59.364Z,5.63
2018-10-18T15:32:28.038Z,5.37
2018-10-18T15:34:56.558Z,6.07
2018-10-18T15:37:25.149Z,6.70
2018-10-18T15:39:53.746Z,6.90
2018-10-18T15:42:22.344Z,5.30
2018-10-18T15:44:50.931Z,4.97
2018-10-18T15:47:19.544Z,4.97
2018-10-18T15:49:48.109Z,5.60
2018-10-18T15:52:16.717Z,6.37
2018-10-18T15:54:45.311Z,8.07
2018-10-18T15:57:13.947Z,7.13
2018-10-18T15:59:42.503Z,8.73
2018-10-18T16:02:11.104Z,7.43
2018-10-18T16:04:39.695Z,8.50
2018-10-18T16:07:08.297Z,8.40
2018-10-18T16:09:36.927Z,8.03
2018-10-18T16:12:05.556Z,9.20
2018-10-18T16:14:34.170Z,9.30
2018-10-18T16:17:02.772Z,9.37
2018-10-18T16:19:31.338Z,9.13
2018-10-18T16:21:59.931Z,10.33
2018-10-18T16:24:28.536Z,10.77
2018-10-18T16:26:57.136Z,9.77
2018-10-18T16:29:25.736Z,10.63
2018-10-18T16:31:57.448Z,9.90
2018-10-18T16:34:26.011Z,9.97
2018-10-18T16:36:54.596Z,10.07
2018-10-18T16:39:23.200Z,9.10
2018-10-18T16:41:51.867Z,8.37
2018-10-18T16:44:20.368Z,8.30
2018-10-18T16:46:48.948Z,8.43
2018-10-18T16:49:17.540Z,8.40
2018-10-18T16:51:46.128Z,7.70
2018-10-18T16:54:14.847Z,7.60
2018-10-18T16:56:43.343Z,6.53
2018-10-18T16:59:11.931Z,6.10
2018-10-18T17:01:40.508Z,5.60
2018-10-18T17:04:09.218Z,6.03
2018-10-18T17:06:37.676Z,6.23
2018-10-18T17:09:08.243Z,6.33
2018-10-18T17:11:36.896Z,6.90
2018-10-18T17:14:06.018Z,6.63
2018-10-18T17:16:34.565Z,9.43
2018-10-18T17:19:03.160Z,7.63
2018-10-18T17:21:31.757Z,9.73
2018-10-18T17:24:00.386Z,7.80
2018-10-18T17:26:29.033Z,7.73
2018-10-18T17:28:57.588Z,8.47
2018-10-18T17:31:26.187Z,8.30
2018-10-18T17:33:54.811Z,9.07
2018-10-18T17:36:23.401Z,9.10
2018-10-18T17:38:51.996Z,8.37
2018-10-18T17:41:20.621Z,8.33
2018-10-18T17:43:49.215Z,9.40
2018-10-18T17:46:17.837Z,9.20
2018-10-18T17:48:46.419Z,9.90
2018-10-18T17:51:15.032Z,9.60
2018-10-18T17:53:43.643Z,9.93
2018-10-18T17:56:12.285Z,11.53
2018-10-18T17:58:40.836Z,11.30
2018-10-18T18:01:09.480Z,11.30
2018-10-18T18:03:38.076Z,10.80
2018-10-18T18:06:06.831Z,11.43
2018-10-18T18:08:35.313Z,11.27
2018-10-18T18:11:03.911Z,9.87
2018-10-18T18:13:32.535Z,11.70
2018-10-18T18:16:01.179Z,11.33
2018-10-18T18:18:29.759Z,9.87
2018-10-18T18:20:58.358Z,10.07
2018-10-18T18:23:26.957Z,9.83
2018-10-18T18:25:55.587Z,10.20
2018-10-18T18:28:24.179Z,11.20
2018-10-18T18:30:52.835Z,10.00
2018-10-18T18:33:21.449Z,10.83
2018-10-18T18:35:50.048Z,12.17
2018-10-18T18:38:18.651Z,10.37
2018-10-18T18:40:47.294Z,12.07
2018-10-18T18:43:15.879Z,12.93
2018-10-18T18:45:44.524Z,12.83
2018-10-18T18:48:13.143Z,11.90
2018-10-18T18:50:41.827Z,12.50
2018-10-18T18:53:10.472Z,11.30
2018-10-18T18:55:39.072Z,12.63
2018-10-18T18:59:32.205Z,11.90
2018-10-18T19:02:00.815Z,12.50
2018-10-18T19:04:29.414Z,12.90
2018-10-18T19:06:58.009Z,15.40
2018-10-18T19:09:26.623Z,12.97
2018-10-18T19:11:55.293Z,15.20
2018-10-18T19:14:23.836Z,13.70
2018-10-18T19:16:52.427Z,14.60
2018-10-18T19:19:21.059Z,15.13
2018-10-18T19:21:49.664Z,13.83
2018-10-18T19:24:18.267Z,13.53
2018-10-18T19:26:46.856Z,14.03
2018-10-18T19:29:15.456Z,13.17
2018-10-18T19:31:44.048Z,13.07
2018-10-18T19:34:12.701Z,14.03
2018-10-18T19:36:41.327Z,13.27
2018-10-18T19:39:10.251Z,13.60
2018-10-18T19:41:38.848Z,14.07
2018-10-18T19:44:07.518Z,12.63
2018-10-18T19:46:36.160Z,13.40
2018-10-18T19:49:04.751Z,13.20
2018-10-18T19:51:33.342Z,12.73
2018-10-18T19:54:01.970Z,13.33
2018-10-18T19:56:30.548Z,12.97
2018-10-18T19:58:59.124Z,11.47
2018-10-18T20:01:27.722Z,11.30
2018-10-18T20:03:56.423Z,12.17
2018-10-18T20:06:24.979Z,12.10
2018-10-18T20:08:53.627Z,13.70
2018-10-18T20:11:22.259Z,11.73
2018-10-18T20:13:50.839Z,12.57
2018-10-18T20:16:19.491Z,12.23
2018-10-18T20:18:48.067Z,12.10
2018-10-18T20:21:16.677Z,11.67
2018-10-18T20:23:45.296Z,11.17
2018-10-18T20:26:14.258Z,11.87
2018-10-18T20:28:42.495Z,11.60
2018-10-18T20:31:11.101Z,11.90
2018-10-18T20:33:39.688Z,11.47
2018-10-18T20:36:08.276Z,12.67
2018-10-18T20:38:36.863Z,12.20
2018-10-18T20:41:05.640Z,11.03
2018-10-18T20:43:34.184Z,12.77
2018-10-18T20:46:02.911Z,12.13
2018-10-18T20:48:31.500Z,12.33
2018-10-18T20:51:00.119Z,12.50
2018-10-18T20:53:28.695Z,12.57
2018-10-18T20:55:57.304Z,12.00
2018-10-18T20:58:25.971Z,12.70
2018-10-18T21:00:54.512Z,12.53
2018-10-18T21:04:47.581Z,13.20
2018-10-18T21:07:16.196Z,11.73
2018-10-18T21:09:44.776Z,11.13
2018-10-18T21:12:13.439Z,12.30
2018-10-18T21:14:41.971Z,10.50
2018-10-18T21:17:10.677Z,11.83
2018-10-18T21:19:39.200Z,12.20
2018-10-18T21:22:07.799Z,10.90
2018-10-18T21:24:36.420Z,11.33
2018-10-18T21:27:05.057Z,11.63
2018-10-18T21:29:33.644Z,11.77
2018-10-18T21:32:02.272Z,10.83
2018-10-18T21:34:30.927Z,10.90
2018-10-18T21:36:59.532Z,11.07
2018-10-18T21:39:32.060Z,11.50
2018-10-18T21:42:07.195Z,12.03
2018-10-18T21:44:36.896Z,11.10
2018-10-18T21:47:05.696Z,11.90
2018-10-18T21:49:34.242Z,11.73
2018-10-18T21:52:02.843Z,11.50
2018-10-18T21:54:31.441Z,12.47
2018-10-18T21:57:00.044Z,11.67
2018-10-18T21:59:28.627Z,11.27
2018-10-18T22:01:57.236Z,12.30
2018-10-18T22:04:25.844Z,12.70
2018-10-18T22:06:54.472Z,12.00
2018-10-18T22:09:23.107Z,13.10
2018-10-18T22:11:51.727Z,12.33
2018-10-18T22:14:20.418Z,12.10
2018-10-18T22:16:49.005Z,12.30
2018-10-18T22:19:17.616Z,13.53
2018-10-18T22:21:46.219Z,11.77
2018-10-18T22:24:14.819Z,11.80
2018-10-18T22:26:43.555Z,12.60
2018-10-18T22:29:12.263Z,13.53
2018-10-18T22:31:40.831Z,12.77
2018-10-18T22:34:09.451Z,13.30
2018-10-18T22:36:38.051Z,13.57
2018-10-18T22:39:08.396Z,13.67
2018-10-18T22:41:37.059Z,13.80
2018-10-18T22:44:06.249Z,14.30
2018-10-18T22:46:34.848Z,15.00
2018-10-18T22:49:03.463Z,13.97
2018-10-18T22:51:32.083Z,16.13
2018-10-18T22:54:00.679Z,14.20
2018-10-18T22:56:29.352Z,14.67
2018-10-18T22:58:57.977Z,15.70
2018-10-18T23:01:26.587Z,15.33
2018-10-18T23:03:55.221Z,15.47
2018-10-18T23:06:23.815Z,14.67
2018-10-18T23:08:52.440Z,16.73
2018-10-18T23:11:21.028Z,15.30
2018-10-18T23:13:49.638Z,15.60
2018-10-18T23:16:18.248Z,15.83
2018-10-18T23:18:46.850Z,17.63
2018-10-18T23:21:15.535Z,15.53
2018-10-18T23:23:44.046Z,16.27
2018-10-18T23:26:12.645Z,16.27
2018-10-18T23:28:41.252Z,16.40
2018-10-18T23:31:09.883Z,17.00
2018-10-18T23:33:38.487Z,16.80
2018-10-18T23:36:07.079Z,18.37
2018-10-18T23:38:35.686Z,15.20
2018-10-18T23:41:04.590Z,17.93
2018-10-18T23:43:33.127Z,17.90
2018-10-18T23:46:01.720Z,16.67
2018-10-18T23:48:30.329Z,16.73
2018-10-18T23:50:58.953Z,16.93
2018-10-18T23:53:27.553Z,17.47
2018-10-18T23:55:56.151Z,17.30
2018-10-18T23:58:24.754Z,17.90
